createdAt,value
2018-02-19T00:00:03.887Z,98634.20
2018-02-19T00:00:35.514Z,98628.64
2018-02-19T00:01:07.195Z,98603.77
2018-02-19T00:01:38.818Z,98632.05
2018-02-19T00:02:10.442Z,98627.79
2018-02-19T00:02:42.071Z,98628.22
2018-02-19T00:03:13.698Z,98626.05
2018-02-19T00:03:45.335Z,98616.69
2018-02-19T00:04:16.962Z,98618.00
2018-02-19T00:04:48.586Z,98619.70
2018-02-19T00:05:20.219Z,98617.15
2018-02-19T00:05:51.850Z,98624.38
2018-02-19T00:06:23.501Z,98621.83
2018-02-19T00:06:55.191Z,98622.68
2018-02-19T00:07:26.813Z,98611.61
2018-02-19T00:07:58.445Z,98614.13
2018-02-19T00:08:30.070Z,98620.02
2018-02-19T00:09:01.701Z,98620.45
2018-02-19T00:09:33.326Z,98618.75
2018-02-19T00:10:04.949Z,98619.56
2018-02-19T00:10:36.574Z,98621.30
2018-02-19T00:11:08.198Z,98615.73
2018-02-19T00:11:39.827Z,98618.70
2018-02-19T00:12:11.502Z,98618.28
2018-02-19T00:12:43.130Z,98621.66
2018-02-19T00:13:14.754Z,98618.25
2018-02-19T00:13:46.384Z,98619.98
2018-02-19T00:14:18.011Z,98625.91
2018-02-19T00:14:49.642Z,98621.27
2018-02-19T00:15:21.306Z,98620.41
2018-02-19T00:15:52.939Z,98620.87
2018-02-19T00:16:25.612Z,98623.82
2018-02-19T00:16:57.233Z,98620.87
2018-02-19T00:17:28.915Z,98617.01
2018-02-19T00:18:00.538Z,98627.65
2018-02-19T00:18:32.162Z,98607.75
2018-02-19T00:19:03.793Z,98619.98
2018-02-19T00:19:35.422Z,98617.01
2018-02-19T00:20:07.045Z,98622.55
2018-02-19T00:20:38.673Z,98615.77
2018-02-19T00:21:10.308Z,98610.27
2018-02-19T00:21:41.938Z,98609.77
2018-02-19T00:22:13.568Z,98613.98
2018-02-19T00:22:45.238Z,98613.17
2018-02-19T00:23:16.861Z,98611.90
2018-02-19T00:23:48.486Z,98611.12
2018-02-19T00:24:20.109Z,98613.31
2018-02-19T00:24:51.739Z,98613.35
2018-02-19T00:25:23.366Z,98612.50
2018-02-19T00:25:54.991Z,98607.81
2018-02-19T00:26:26.618Z,98607.39
2018-02-19T00:26:58.290Z,98608.24
2018-02-19T00:27:29.917Z,98607.81
2018-02-19T00:28:01.543Z,98613.31
2018-02-19T00:28:33.175Z,98613.74
2018-02-19T00:29:04.807Z,98609.48
2018-02-19T00:29:36.434Z,98612.47
2018-02-19T00:30:08.058Z,98605.66
2018-02-19T00:30:39.682Z,98613.74
2018-02-19T00:31:11.307Z,98613.31
2018-02-19T00:31:42.982Z,98610.77
2018-02-19T00:32:14.631Z,98614.17
2018-02-19T00:32:46.258Z,98605.66
2018-02-19T00:33:17.886Z,98615.88
2018-02-19T00:33:49.513Z,98611.22
2018-02-19T00:34:21.142Z,98612.89
2018-02-19T00:34:52.770Z,98615.05
2018-02-19T00:35:24.398Z,98611.19
2018-02-19T00:35:56.026Z,98614.98
2018-02-19T00:36:27.654Z,98611.16
2018-02-19T00:36:59.279Z,98607.39
2018-02-19T00:37:30.902Z,98612.50
2018-02-19T00:38:02.530Z,98609.95
2018-02-19T00:38:34.154Z,98606.15
2018-02-19T00:39:05.781Z,98609.98
2018-02-19T00:39:37.407Z,98607.00
2018-02-19T00:40:09.034Z,98611.68
2018-02-19T00:40:40.702Z,98606.55
2018-02-19T00:41:12.330Z,98604.84
2018-02-19T00:41:43.961Z,98604.84
2018-02-19T00:42:15.585Z,98597.17
2018-02-19T00:42:47.210Z,98599.30
2018-02-19T00:43:19.113Z,98599.27
2018-02-19T00:43:51.860Z,98599.30
2018-02-19T00:44:23.510Z,98591.22
2018-02-19T00:44:55.139Z,98596.36
2018-02-19T00:45:26.762Z,98593.34
2018-02-19T00:45:58.386Z,98589.55
2018-02-19T00:46:30.010Z,98588.70
2018-02-19T00:47:01.639Z,98590.01
2018-02-19T00:47:33.262Z,98584.90
2018-02-19T00:48:04.891Z,98590.01
2018-02-19T00:48:36.572Z,98580.22
2018-02-19T00:49:08.193Z,98587.45
2018-02-19T00:49:39.818Z,98584.90
2018-02-19T00:50:11.446Z,98583.63
2018-02-19T00:50:43.074Z,98582.38
2018-02-19T00:51:14.702Z,98578.94
2018-02-19T00:51:46.326Z,98580.64
2018-02-19T00:52:17.950Z,98579.37
2018-02-19T00:52:49.579Z,98576.35
2018-02-19T00:53:21.201Z,98570.39
2018-02-19T00:53:52.866Z,98576.35
2018-02-19T00:54:24.495Z,98574.19
2018-02-19T00:54:56.146Z,98573.77
2018-02-19T00:55:27.774Z,98577.59
2018-02-19T00:55:59.398Z,98564.44
2018-02-19T00:56:31.026Z,98567.80
2018-02-19T00:57:02.657Z,98568.63
2018-02-19T00:57:34.282Z,98560.99
2018-02-19T00:58:05.910Z,98565.64
2018-02-19T00:58:37.727Z,98563.13
2018-02-19T00:59:09.350Z,98569.08
2018-02-19T00:59:40.974Z,98563.16
2018-02-19T01:00:12.602Z,98563.13
2018-02-19T01:00:44.230Z,98558.91
2018-02-19T01:01:15.854Z,98564.86
2018-02-19T01:01:47.481Z,98556.81
2018-02-19T01:02:19.110Z,98556.34
2018-02-19T01:02:50.736Z,98559.33
2018-02-19T01:03:22.359Z,98563.59
2018-02-19T01:03:54.026Z,98551.24
2018-02-19T01:04:25.658Z,98555.92
2018-02-19T01:04:57.286Z,98548.27
2018-02-19T01:05:28.910Z,98553.37
2018-02-19T01:06:00.539Z,98556.34
2018-02-19T01:06:32.170Z,98551.66
2018-02-19T01:07:03.799Z,98556.73
2018-02-19T01:07:35.478Z,98553.37
2018-02-19T01:08:07.101Z,98552.94
2018-02-19T01:08:38.723Z,98552.09
2018-02-19T01:09:10.346Z,98549.58
2018-02-19T01:09:41.970Z,98550.00
2018-02-19T01:10:13.602Z,98552.13
2018-02-19T01:10:45.232Z,98550.00
2018-02-19T01:11:16.858Z,98547.88
2018-02-19T01:11:48.486Z,98552.13
2018-02-19T01:12:20.107Z,98546.63
2018-02-19T01:12:51.730Z,98547.91
2018-02-19T01:13:23.354Z,98543.65
2018-02-19T01:13:54.978Z,98541.91
2018-02-19T01:14:26.602Z,98539.82
2018-02-19T01:14:58.226Z,98542.80
2018-02-19T01:15:29.855Z,98547.02
2018-02-19T01:16:01.479Z,98542.73
2018-02-19T01:16:33.101Z,98550.36
2018-02-19T01:17:04.730Z,98542.23
2018-02-19T01:17:36.358Z,98543.89
2018-02-19T01:18:07.981Z,98536.23
2018-02-19T01:18:39.630Z,98539.17
2018-02-19T01:19:11.262Z,98537.94
2018-02-19T01:19:42.886Z,98530.70
2018-02-19T01:20:14.558Z,98533.29
2018-02-19T01:20:46.177Z,98534.14
2018-02-19T01:21:17.805Z,98537.16
2018-02-19T01:21:49.426Z,98532.87
2018-02-19T01:22:21.136Z,98531.20
2018-02-19T01:22:52.765Z,98532.86
2018-02-19T01:23:24.394Z,98533.29
2018-02-19T01:23:56.027Z,98529.88
2018-02-19T01:24:27.654Z,98530.70
2018-02-19T01:24:59.281Z,98530.31
2018-02-19T01:25:30.910Z,98526.48
2018-02-19T01:26:02.538Z,98528.61
2018-02-19T01:26:34.214Z,98525.20
2018-02-19T01:27:05.842Z,98526.05
2018-02-19T01:27:37.466Z,98526.52
2018-02-19T01:28:09.094Z,98529.03
2018-02-19T01:28:40.718Z,98521.80
2018-02-19T01:29:12.346Z,98523.50
2018-02-19T01:29:43.974Z,98521.80
2018-02-19T01:30:15.600Z,98517.97
2018-02-19T01:30:47.222Z,98520.09
2018-02-19T01:31:18.856Z,98516.72
2018-02-19T01:31:50.525Z,98523.11
2018-02-19T01:32:22.194Z,98518.00
2018-02-19T01:32:53.862Z,98523.11
2018-02-19T01:33:25.487Z,98520.56
2018-02-19T01:33:57.114Z,98524.42
2018-02-19T01:34:28.742Z,98521.02
2018-02-19T01:35:00.374Z,98519.32
2018-02-19T01:35:32.041Z,98522.69
2018-02-19T01:36:03.671Z,98524.78
2018-02-19T01:36:35.294Z,98526.91
2018-02-19T01:37:06.922Z,98522.22
2018-02-19T01:37:38.546Z,98529.45
2018-02-19T01:38:10.174Z,98530.27
2018-02-19T01:38:41.802Z,98531.55
2018-02-19T01:39:13.434Z,98522.64
2018-02-19T01:39:45.078Z,98531.59
2018-02-19T01:40:16.701Z,98528.61
2018-02-19T01:40:48.374Z,98531.13
2018-02-19T01:41:20.002Z,98522.22
2018-02-19T01:41:51.625Z,98529.50
2018-02-19T01:42:23.246Z,98523.11
2018-02-19T01:42:54.874Z,98518.05
2018-02-19T01:43:26.499Z,98521.48
2018-02-19T01:43:58.122Z,98519.78
2018-02-19T01:44:29.747Z,98520.17
2018-02-19T01:45:01.372Z,98520.17
2018-02-19T01:45:32.998Z,98518.89
2018-02-19T01:46:04.670Z,98521.87
2018-02-19T01:46:36.294Z,98522.30
2018-02-19T01:47:07.926Z,98511.34
2018-02-19T01:47:39.554Z,98524.08
2018-02-19T01:48:11.177Z,98515.98
2018-02-19T01:48:42.798Z,98521.95
2018-02-19T01:49:14.422Z,98519.81
2018-02-19T01:49:46.086Z,98514.28
2018-02-19T01:50:17.710Z,98518.08
2018-02-19T01:50:49.335Z,98526.16
2018-02-19T01:51:20.966Z,98517.61
2018-02-19T01:51:52.596Z,98520.98
2018-02-19T01:52:24.226Z,98513.75
2018-02-19T01:52:55.850Z,98512.86
2018-02-19T01:53:27.474Z,98509.45
2018-02-19T01:53:59.097Z,98510.69
2018-02-19T01:54:30.723Z,98513.70
2018-02-19T01:55:02.346Z,98515.80
2018-02-19T01:55:33.974Z,98512.44
2018-02-19T01:56:05.599Z,98514.52
2018-02-19T01:56:37.222Z,98514.06
2018-02-19T01:57:08.841Z,98509.80
2018-02-19T01:57:40.465Z,98505.16
2018-02-19T01:58:12.086Z,98509.84
2018-02-19T01:58:43.711Z,98516.61
2018-02-19T01:59:15.334Z,98505.12
2018-02-19T01:59:47.011Z,98505.13
2018-02-19T02:00:18.634Z,98515.33
2018-02-19T02:00:50.263Z,98505.58
2018-02-19T02:01:21.886Z,98503.88
2018-02-19T02:01:53.514Z,98507.71
2018-02-19T02:02:25.146Z,98500.86
2018-02-19T02:02:56.774Z,98500.89
2018-02-19T02:03:28.403Z,98496.22
2018-02-19T02:04:00.029Z,98497.92
2018-02-19T02:04:31.650Z,98499.63
2018-02-19T02:05:03.326Z,98501.33
2018-02-19T02:05:34.950Z,98500.05
2018-02-19T02:06:06.573Z,98500.05
2018-02-19T02:06:38.203Z,98491.07
2018-02-19T02:07:09.825Z,98488.09
2018-02-19T02:07:41.446Z,98486.85
2018-02-19T02:08:13.072Z,98495.36
2018-02-19T02:08:44.706Z,98491.53
2018-02-19T02:09:16.329Z,98488.17
2018-02-19T02:09:47.954Z,98488.94
2018-02-19T02:10:19.639Z,98489.41
2018-02-19T02:10:51.261Z,98495.37
2018-02-19T02:11:22.882Z,98486.89
2018-02-19T02:11:54.505Z,98492.39
2018-02-19T02:12:26.129Z,98488.09
2018-02-19T02:12:57.841Z,98485.96
2018-02-19T02:13:29.470Z,98488.52
2018-02-19T02:14:01.098Z,98488.13
2018-02-19T02:14:32.727Z,98486.04
2018-02-19T02:15:04.375Z,98482.20
2018-02-19T02:15:36.050Z,98487.28
2018-02-19T02:16:07.674Z,98490.27
2018-02-19T02:16:39.298Z,98494.13
2018-02-19T02:17:10.923Z,98488.59
2018-02-19T02:17:42.546Z,98483.02
2018-02-19T02:18:14.174Z,98482.17
2018-02-19T02:18:45.803Z,98479.27
2018-02-19T02:19:17.425Z,98482.22
2018-02-19T02:19:49.054Z,98482.21
2018-02-19T02:20:20.683Z,98480.47
2018-02-19T02:20:52.354Z,98481.33
2018-02-19T02:21:23.978Z,98477.95
2018-02-19T02:21:55.606Z,98472.84
2018-02-19T02:22:27.235Z,98480.89
2018-02-19T02:22:58.858Z,98472.38
2018-02-19T02:23:30.524Z,98462.71
2018-02-19T02:24:02.146Z,98476.20
2018-02-19T02:24:33.771Z,98477.48
2018-02-19T02:25:05.442Z,98476.17
2018-02-19T02:25:37.066Z,98471.91
2018-02-19T02:26:08.695Z,98472.80
2018-02-19T02:26:40.364Z,98471.09
2018-02-19T02:27:11.978Z,98472.38
2018-02-19T02:27:43.650Z,98468.08
2018-02-19T02:28:15.285Z,98468.94
2018-02-19T02:28:46.911Z,98469.82
2018-02-19T02:29:18.538Z,98465.61
2018-02-19T02:29:50.162Z,98467.70
2018-02-19T02:30:21.791Z,98467.31
2018-02-19T02:30:53.468Z,98468.13
2018-02-19T02:31:25.091Z,98466.84
2018-02-19T02:31:56.713Z,98475.32
2018-02-19T02:32:28.338Z,98467.69
2018-02-19T02:33:00.009Z,98469.02
2018-02-19T02:33:31.638Z,98464.33
2018-02-19T02:34:03.275Z,98467.31
2018-02-19T02:34:34.898Z,98472.03
2018-02-19T02:35:06.521Z,98466.50
2018-02-19T02:35:38.147Z,98465.66
2018-02-19T02:36:09.779Z,98469.09
2018-02-19T02:36:41.408Z,98464.38
2018-02-19T02:37:13.030Z,98460.12
2018-02-19T02:37:44.654Z,98459.22
2018-02-19T02:38:16.326Z,98468.59
2018-02-19T02:38:47.951Z,98466.46
2018-02-19T02:39:19.574Z,98462.63
2018-02-19T02:39:51.198Z,98459.23
2018-02-19T02:40:22.827Z,98459.27
2018-02-19T02:40:54.452Z,98458.88
2018-02-19T02:41:26.082Z,98460.12
2018-02-19T02:41:57.706Z,98459.69
2018-02-19T02:42:29.329Z,98454.63
2018-02-19T02:43:00.962Z,98456.71
2018-02-19T02:43:32.634Z,98460.50
2018-02-19T02:44:04.267Z,98456.67
2018-02-19T02:44:35.898Z,98452.88
2018-02-19T02:45:07.526Z,98453.34
2018-02-19T02:45:39.158Z,98453.77
2018-02-19T02:46:10.782Z,98453.39
2018-02-19T02:46:42.411Z,98451.26
2018-02-19T02:47:14.039Z,98453.85
2018-02-19T02:47:45.674Z,98457.64
2018-02-19T02:48:17.302Z,98431.42
2018-02-19T02:48:48.926Z,98449.59
2018-02-19T02:49:20.589Z,98451.30
2018-02-19T02:49:52.214Z,98458.92
2018-02-19T02:50:23.839Z,98451.69
2018-02-19T02:50:55.466Z,98453.77
2018-02-19T02:51:27.094Z,98454.12
2018-02-19T02:51:58.721Z,98454.11
2018-02-19T02:52:30.346Z,98446.88
2018-02-19T02:53:02.016Z,98447.73
2018-02-19T02:53:33.647Z,98452.41
2018-02-19T02:54:05.275Z,98442.19
2018-02-19T02:54:36.908Z,98447.69
2018-02-19T02:55:08.538Z,98447.30
2018-02-19T02:55:40.162Z,98448.16
2018-02-19T02:56:11.827Z,98446.45
2018-02-19T02:56:43.467Z,98440.50
2018-02-19T02:57:15.089Z,98443.48
2018-02-19T02:57:46.714Z,98444.33
2018-02-19T02:58:18.351Z,98439.69
2018-02-19T02:58:49.974Z,98437.98
2018-02-19T02:59:21.602Z,98438.02
2018-02-19T02:59:53.227Z,98438.87
2018-02-19T03:00:24.850Z,98434.58
2018-02-19T03:00:56.482Z,98433.73
2018-02-19T03:01:28.150Z,98433.27
2018-02-19T03:01:59.783Z,98429.05
2018-02-19T03:02:31.405Z,98438.80
2018-02-19T03:03:03.039Z,98432.02
2018-02-19T03:03:34.690Z,98436.28
2018-02-19T03:04:06.319Z,98434.20
2018-02-19T03:04:37.987Z,98428.23
2018-02-19T03:05:09.614Z,98431.64
2018-02-19T03:05:41.249Z,98431.17
2018-02-19T03:06:12.878Z,98434.58
2018-02-19T03:06:44.506Z,98436.71
2018-02-19T03:07:16.134Z,98432.49
2018-02-19T03:07:47.757Z,98438.02
2018-02-19T03:08:19.426Z,98436.32
2018-02-19T03:08:51.050Z,98437.56
2018-02-19T03:09:22.679Z,98436.28
2018-02-19T03:09:54.302Z,98432.45
2018-02-19T03:10:25.927Z,98430.75
2018-02-19T03:10:57.762Z,98426.11
2018-02-19T03:11:29.444Z,98433.34
2018-02-19T03:12:01.070Z,98432.88
2018-02-19T03:12:32.694Z,98431.17
2018-02-19T03:13:04.322Z,98427.80
2018-02-19T03:13:35.946Z,98432.48
2018-02-19T03:14:07.566Z,98432.07
2018-02-19T03:14:39.190Z,98431.64
2018-02-19T03:15:10.814Z,98428.61
2018-02-19T03:15:42.437Z,98429.42
2018-02-19T03:16:14.062Z,98432.83
2018-02-19T03:16:45.746Z,98429.89
2018-02-19T03:17:17.371Z,98426.91
2018-02-19T03:17:49.000Z,98422.66
2018-02-19T03:18:20.626Z,98426.88
2018-02-19T03:18:52.250Z,98430.28
2018-02-19T03:19:23.873Z,98423.52
2018-02-19T03:19:55.498Z,98425.64
2018-02-19T03:20:27.131Z,98428.61
2018-02-19T03:20:58.758Z,98425.17
2018-02-19T03:21:30.386Z,98423.94
2018-02-19T03:22:02.066Z,98424.79
2018-02-19T03:22:33.690Z,98419.30
2018-02-19T03:23:05.314Z,98406.27
2018-02-19T03:23:36.942Z,98419.72
2018-02-19T03:24:08.570Z,98421.00
2018-02-19T03:24:40.198Z,98421.42
2018-02-19T03:25:11.818Z,98416.78
2018-02-19T03:25:43.441Z,98418.44
2018-02-19T03:26:15.066Z,98418.84
2018-02-19T03:26:46.695Z,98422.23
2018-02-19T03:27:18.358Z,98418.83
2018-02-19T03:27:49.985Z,98419.73
2018-02-19T03:28:21.646Z,98418.44
2018-02-19T03:28:53.318Z,98414.19
2018-02-19T03:29:24.945Z,98414.62
2018-02-19T03:29:56.566Z,98416.75
2018-02-19T03:30:28.194Z,98412.49
2018-02-19T03:30:59.818Z,98409.94
2018-02-19T03:31:31.442Z,98415.05
2018-02-19T03:32:03.067Z,98412.95
2018-02-19T03:32:34.694Z,98412.53
2018-02-19T03:33:06.322Z,98418.02
2018-02-19T03:33:37.945Z,98421.00
2018-02-19T03:34:09.618Z,98414.19
2018-02-19T03:34:41.251Z,98412.48
2018-02-19T03:35:12.883Z,98416.75
2018-02-19T03:35:44.512Z,98416.75
2018-02-19T03:36:16.133Z,98392.70
2018-02-19T03:36:47.763Z,98420.58
2018-02-19T03:37:19.390Z,98418.02
2018-02-19T03:37:51.018Z,98410.78
2018-02-19T03:38:22.646Z,98419.30
2018-02-19T03:38:54.314Z,98417.17
2018-02-19T03:39:25.943Z,98412.48
2018-02-19T03:39:57.614Z,98412.91
2018-02-19T03:40:29.242Z,98413.34
2018-02-19T03:41:00.922Z,98416.31
2018-02-19T03:41:32.554Z,98416.73
2018-02-19T03:42:04.177Z,98417.13
2018-02-19T03:42:35.798Z,98418.44
2018-02-19T03:43:07.422Z,98415.42
2018-02-19T03:43:39.050Z,98414.58
2018-02-19T03:44:10.674Z,98410.74
2018-02-19T03:44:42.302Z,98415.42
2018-02-19T03:45:13.930Z,98413.76
2018-02-19T03:45:45.557Z,98412.02
2018-02-19T03:46:17.362Z,98414.62
2018-02-19T03:46:48.994Z,98409.08
2018-02-19T03:47:20.619Z,98417.59
2018-02-19T03:47:52.247Z,98413.30
2018-02-19T03:48:23.874Z,98421.81
2018-02-19T03:48:55.501Z,98417.59
2018-02-19T03:49:27.129Z,98412.45
2018-02-19T03:49:58.751Z,98417.13
2018-02-19T03:50:30.410Z,98418.40
2018-02-19T03:51:02.038Z,98416.48
2018-02-19T03:51:33.718Z,98422.39
2018-02-19T03:52:05.342Z,98419.80
2018-02-19T03:52:36.970Z,98419.41
2018-02-19T03:53:08.594Z,98427.13
2018-02-19T03:53:40.222Z,98424.24
2018-02-19T03:54:11.845Z,98426.88
2018-02-19T03:54:43.474Z,98427.39
2018-02-19T03:55:15.098Z,98420.63
2018-02-19T03:55:46.717Z,98419.42
2018-02-19T03:56:18.343Z,98422.87
2018-02-19T03:56:50.006Z,98418.53
2018-02-19T03:57:21.630Z,98423.55
2018-02-19T03:57:53.258Z,98422.70
2018-02-19T03:58:24.926Z,98415.80
2018-02-19T03:58:56.551Z,98425.94
2018-02-19T03:59:28.179Z,98416.95
2018-02-19T03:59:59.806Z,98423.39
2018-02-19T04:00:31.438Z,98419.25
2018-02-19T04:01:03.067Z,98419.00
2018-02-19T04:01:34.703Z,98420.82
2018-02-19T04:02:06.334Z,98418.78
2018-02-19T04:02:38.002Z,98419.97
2018-02-19T04:03:09.626Z,98425.80
2018-02-19T04:03:41.249Z,98421.52
2018-02-19T04:04:12.874Z,98418.23
2018-02-19T04:04:44.549Z,98414.78
2018-02-19T04:05:16.173Z,98417.30
2018-02-19T04:05:47.794Z,98418.96
2018-02-19T04:06:19.422Z,98416.87
2018-02-19T04:06:51.046Z,98412.23
2018-02-19T04:07:22.679Z,98410.57
2018-02-19T04:07:54.298Z,98408.91
2018-02-19T04:08:25.926Z,98406.81
2018-02-19T04:08:57.555Z,98402.98
2018-02-19T04:09:29.189Z,98405.11
2018-02-19T04:10:00.866Z,98406.40
2018-02-19T04:10:32.494Z,98400.02
2018-02-19T04:11:04.114Z,98392.09
2018-02-19T04:11:35.738Z,98406.44
2018-02-19T04:12:07.366Z,98401.30
2018-02-19T04:12:38.990Z,98403.00
2018-02-19T04:13:10.618Z,98400.02
2018-02-19T04:13:42.247Z,98393.25
2018-02-19T04:14:13.870Z,98397.47
2018-02-19T04:14:45.498Z,98400.44
2018-02-19T04:15:17.133Z,98394.91
2018-02-19T04:15:48.758Z,98399.20
2018-02-19T04:16:20.381Z,98392.83
2018-02-19T04:16:52.014Z,98396.23
2018-02-19T04:17:23.638Z,98393.71
2018-02-19T04:17:55.266Z,98394.95
2018-02-19T04:18:26.894Z,98394.95
2018-02-19T04:18:58.517Z,98390.27
2018-02-19T04:19:30.143Z,98390.27
2018-02-19T04:20:01.766Z,98393.28
2018-02-19T04:20:33.429Z,98391.58
2018-02-19T04:21:05.059Z,98394.13
2018-02-19T04:21:36.686Z,98392.44
2018-02-19T04:22:08.309Z,98389.84
2018-02-19T04:22:39.970Z,98385.16
2018-02-19T04:23:11.645Z,98386.44
2018-02-19T04:23:43.269Z,98389.42
2018-02-19T04:24:14.899Z,98388.60
2018-02-19T04:24:46.530Z,98387.75
2018-02-19T04:25:18.154Z,98389.88
2018-02-19T04:25:49.782Z,98383.97
2018-02-19T04:26:21.406Z,98385.25
2018-02-19T04:26:53.030Z,98389.07
2018-02-19T04:27:24.666Z,98392.90
2018-02-19T04:27:56.337Z,98386.94
2018-02-19T04:28:27.973Z,98388.61
2018-02-19T04:28:59.603Z,98385.20
2018-02-19T04:29:31.226Z,98386.47
2018-02-19T04:30:02.850Z,98384.78
2018-02-19T04:30:34.486Z,98390.31
2018-02-19T04:31:06.119Z,98388.19
2018-02-19T04:31:37.742Z,98383.92
2018-02-19T04:32:09.366Z,98386.48
2018-02-19T04:32:40.998Z,98381.84
2018-02-19T04:33:12.665Z,98385.24
2018-02-19T04:33:44.290Z,98381.41
2018-02-19T04:34:15.916Z,98384.39
2018-02-19T04:34:47.541Z,98389.08
2018-02-19T04:35:19.170Z,98384.39
2018-02-19T04:35:50.802Z,98389.50
2018-02-19T04:36:22.431Z,98385.23
2018-02-19T04:36:54.054Z,98385.67
2018-02-19T04:37:25.686Z,98388.61
2018-02-19T04:37:57.311Z,98387.80
2018-02-19T04:38:28.983Z,98384.40
2018-02-19T04:39:00.614Z,98390.73
2018-02-19T04:39:32.238Z,98390.73
2018-02-19T04:40:03.867Z,98388.18
2018-02-19T04:40:35.494Z,98388.19
2018-02-19T04:41:07.118Z,98441.40
2018-02-19T04:41:38.743Z,98397.55
2018-02-19T04:42:10.371Z,98391.12
2018-02-19T04:42:42.015Z,98392.39
2018-02-19T04:43:14.277Z,98387.33
2018-02-19T04:43:45.953Z,98386.48
2018-02-19T04:44:23.291Z,98388.18
2018-02-19T04:45:11.652Z,98391.55
2018-02-19T04:45:43.298Z,98386.91
2018-02-19T04:46:34.755Z,98391.59
2018-02-19T04:47:06.398Z,98386.94
2018-02-19T04:47:38.022Z,98393.28
2018-02-19T04:48:09.641Z,98384.35
2018-02-19T04:48:41.266Z,98385.33
2018-02-19T04:49:12.938Z,98389.03
2018-02-19T04:49:44.561Z,98388.86
2018-02-19T04:50:16.220Z,98384.87
2018-02-19T04:50:47.902Z,98380.14
2018-02-19T04:51:19.526Z,98387.42
2018-02-19T04:51:51.155Z,98385.72
2018-02-19T04:52:22.785Z,98381.04
2018-02-19T04:52:54.411Z,98388.31
2018-02-19T04:53:26.042Z,98356.19
2018-02-19T04:53:57.670Z,98388.09
2018-02-19T04:54:29.299Z,98387.63
2018-02-19T04:55:00.934Z,98385.97
2018-02-19T04:55:32.557Z,98385.59
2018-02-19T04:56:04.233Z,98377.63
2018-02-19T04:56:35.857Z,98383.12
2018-02-19T04:57:07.502Z,98383.46
2018-02-19T04:57:39.130Z,98384.34
2018-02-19T04:58:10.755Z,98382.65
2018-02-19T04:58:42.382Z,98381.80
2018-02-19T04:59:14.010Z,98382.22
2018-02-19T04:59:45.638Z,98381.38
2018-02-19T05:00:17.262Z,98379.25
2018-02-19T05:00:48.891Z,98380.95
2018-02-19T05:01:20.582Z,98380.95
2018-02-19T05:01:52.202Z,98376.27
2018-02-19T05:02:23.826Z,98375.41
2018-02-19T05:02:55.449Z,98380.09
2018-02-19T05:03:27.079Z,98383.08
2018-02-19T05:03:58.710Z,98381.80
2018-02-19T05:04:30.390Z,98384.31
2018-02-19T05:05:02.022Z,98382.56
2018-02-19T05:05:33.648Z,98383.89
2018-02-19T05:06:05.279Z,98385.20
2018-02-19T05:06:36.903Z,98385.72
2018-02-19T05:07:08.538Z,98388.70
2018-02-19T05:07:40.166Z,98384.48
2018-02-19T05:08:11.794Z,98380.69
2018-02-19T05:08:43.421Z,98373.88
2018-02-19T05:09:15.045Z,98380.61
2018-02-19T05:09:46.669Z,98381.93
2018-02-19T05:10:18.294Z,98378.14
2018-02-19T05:10:49.926Z,98370.44
2018-02-19T05:11:21.550Z,98374.74
2018-02-19T05:11:53.174Z,98376.44
2018-02-19T05:12:24.798Z,98372.23
2018-02-19T05:12:56.422Z,98371.84
2018-02-19T05:13:28.051Z,98367.55
2018-02-19T05:13:59.725Z,98373.51
2018-02-19T05:14:31.335Z,98373.55
2018-02-19T05:15:03.014Z,98376.06
2018-02-19T05:15:34.638Z,98371.38
2018-02-19T05:16:06.306Z,98373.12
2018-02-19T05:16:37.930Z,98376.14
2018-02-19T05:17:09.558Z,98378.73
2018-02-19T05:17:41.186Z,98372.78
2018-02-19T05:18:12.858Z,98375.34
2018-02-19T05:18:44.486Z,98376.23
2018-02-19T05:19:16.114Z,98379.20
2018-02-19T05:19:47.738Z,98370.78
2018-02-19T05:20:19.361Z,98378.44
2018-02-19T05:20:50.990Z,98379.28
2018-02-19T05:21:22.658Z,98376.73
2018-02-19T05:21:54.282Z,98379.71
2018-02-19T05:22:25.906Z,98373.77
2018-02-19T05:22:57.581Z,98375.50
2018-02-19T05:23:29.238Z,98374.61
2018-02-19T05:24:00.861Z,98375.08
2018-02-19T05:24:32.490Z,98375.11
2018-02-19T05:25:04.126Z,98369.58
2018-02-19T05:25:35.754Z,98366.19
2018-02-19T05:26:07.378Z,98367.46
2018-02-19T05:26:39.007Z,98365.33
2018-02-19T05:27:10.638Z,98359.84
2018-02-19T05:27:42.310Z,98368.34
2018-02-19T05:28:13.978Z,98360.31
2018-02-19T05:28:45.597Z,98364.98
2018-02-19T05:29:17.223Z,98362.05
2018-02-19T05:29:48.890Z,98365.45
2018-02-19T05:30:20.514Z,98363.36
2018-02-19T05:30:52.162Z,98364.64
2018-02-19T05:31:23.786Z,98362.05
2018-02-19T05:31:55.414Z,98359.53
2018-02-19T05:32:27.043Z,98374.77
2018-02-19T05:32:58.671Z,98369.20
2018-02-19T05:33:30.298Z,98362.77
2018-02-19T05:34:01.970Z,98367.42
2018-02-19T05:34:33.597Z,98369.94
2018-02-19T05:35:05.226Z,98362.31
2018-02-19T05:35:36.891Z,98370.39
2018-02-19T05:36:08.514Z,98368.66
2018-02-19T05:36:40.138Z,98363.55
2018-02-19T05:37:11.762Z,98366.09
2018-02-19T05:37:43.390Z,98366.52
2018-02-19T05:38:15.022Z,98369.93
2018-02-19T05:38:46.646Z,98363.16
2018-02-19T05:39:18.274Z,98359.77
2018-02-19T05:39:50.078Z,98362.27
2018-02-19T05:40:21.709Z,98358.88
2018-02-19T05:40:53.335Z,98345.77
2018-02-19T05:41:24.958Z,98364.73
2018-02-19T05:41:56.590Z,98360.44
2018-02-19T05:42:28.214Z,98368.52
2018-02-19T05:42:59.843Z,98367.25
2018-02-19T05:43:31.473Z,98351.12
2018-02-19T05:44:03.103Z,98360.91
2018-02-19T05:44:34.727Z,98358.75
2018-02-19T05:45:06.398Z,98359.59
2018-02-19T05:45:38.022Z,98354.91
2018-02-19T05:46:09.647Z,98365.59
2018-02-19T05:46:41.278Z,98360.02
2018-02-19T05:47:12.942Z,98362.99
2018-02-19T05:47:44.565Z,98355.76
2018-02-19T05:48:16.190Z,98355.77
2018-02-19T05:48:47.818Z,98354.48
2018-02-19T05:49:19.490Z,98349.38
2018-02-19T05:49:51.126Z,98357.03
2018-02-19T05:50:22.758Z,98355.72
2018-02-19T05:50:54.383Z,98353.59
2018-02-19T05:51:26.013Z,98353.16
2018-02-19T05:51:57.638Z,98352.70
2018-02-19T05:52:29.266Z,98354.82
2018-02-19T05:53:00.889Z,98353.52
2018-02-19T05:53:32.523Z,98353.98
2018-02-19T05:54:04.154Z,98356.53
2018-02-19T05:54:35.842Z,98357.84
2018-02-19T05:55:07.471Z,98357.38
2018-02-19T05:55:39.098Z,98362.02
2018-02-19T05:56:10.721Z,98357.34
2018-02-19T05:56:42.346Z,98364.57
2018-02-19T05:57:13.971Z,98359.08
2018-02-19T05:57:45.598Z,98358.61
2018-02-19T05:58:17.231Z,98361.16
2018-02-19T05:58:48.855Z,98363.30
2018-02-19T05:59:20.482Z,98359.89
2018-02-19T05:59:52.165Z,98362.02
2018-02-19T06:00:23.790Z,98363.30
2018-02-19T06:00:55.414Z,98365.46
2018-02-19T06:01:27.043Z,98362.06
2018-02-19T06:01:58.671Z,98366.69
2018-02-19T06:02:30.302Z,98367.12
2018-02-19T06:03:01.931Z,98364.57
2018-02-19T06:03:33.554Z,98365.80
2018-02-19T06:04:05.182Z,98364.95
2018-02-19T06:04:36.811Z,98368.78
2018-02-19T06:05:08.486Z,98362.78
2018-02-19T06:05:40.112Z,98367.08
2018-02-19T06:06:11.738Z,98367.92
2018-02-19T06:06:43.366Z,98358.56
2018-02-19T06:07:14.994Z,98369.16
2018-02-19T06:07:46.618Z,98367.42
2018-02-19T06:08:18.284Z,98363.59
2018-02-19T06:08:49.906Z,98362.73
2018-02-19T06:09:21.534Z,98361.45
2018-02-19T06:09:53.162Z,98362.69
2018-02-19T06:10:24.843Z,98362.27
2018-02-19T06:10:56.465Z,98368.27
2018-02-19T06:11:28.095Z,98368.65
2018-02-19T06:11:59.717Z,98366.95